Home   Weather   France   Limoges   Past weeks
Flag for France

Past Weather in Limoges, Haute-Vienne, France — Yesterday and Last 2 Weeks

Currently: 75 °F. Passing clouds. (Weather station: Limoges Airport, France). See more current weather

Past Weather in Limoges — Graph

°F

Limoges Temperature Yesterday

Maximum temperature yesterday: 77 °F (at 4:00 pm)
Minimum temperature yesterday: 61 °F (at 5:30 am)
Average temperature yesterday: 69 °F

High & Low Weather Summary for the Past Weeks

 TemperatureHumidityPressure
High88 °F (Jul 18, 5:00 pm)100% (Jul 10, 7:00 am)30.24 "Hg (Jul 10, 7:00 am)
Low50 °F (Jul 13, 6:30 am)33% (Jul 18, 5:00 pm)29.77 "Hg (Jul 20, 7:00 pm)
Average67 °F75%30.06 "Hg
* Reported Jul 9 2:30 pm — Jul 24 1:00 pm, Limoges. Weather by CustomWeather, © 2024

Note: Actual official high and low records may vary slightly from our data, if they occured in-between our weather recording intervals... More about our weather records

Limoges Weather History for the Previous 24 Hours

Scroll right to see more
 ConditionsComfort  
Time TempWeatherWind HumidityBarometerVisibility
1:00 pm
Wed, Jul 24
75 °FPassing clouds.6 mph61%30.18 "HgN/A
12:30 pm73 °FScattered clouds.6 mph61%30.18 "HgN/A
12:00 pm72 °FScattered clouds.6 mph65%30.18 "HgN/A
11:30 am70 °FPartly sunny.2 mph78%30.18 "HgN/A
11:00 am68 °FBroken clouds.3 mph83%30.18 "HgN/A
10:30 am70 °FMostly cloudy.5 mph78%30.18 "HgN/A
10:00 am68 °FPartly sunny.3 mph83%30.18 "HgN/A
9:30 am68 °FSunny.2 mph88%30.18 "Hg10 mi
9:00 am66 °FPassing clouds.2 mph88%30.18 "HgN/A
8:30 am64 °FScattered clouds.No wind94%30.18 "HgN/A
8:00 am63 °FPassing clouds.2 mph94%30.18 "HgN/A
7:30 am63 °FPartly sunny.3 mph94%30.18 "HgN/A
7:00 am61 °FScattered clouds.3 mph100%30.18 "HgN/A
6:30 am61 °FLow clouds.3 mph100%30.18 "HgN/A
6:00 am61 °FPassing clouds.1 mph100%30.18 "HgN/A
5:30 am63 °FPassing clouds.2 mph94%30.18 "HgN/A
5:00 am61 °FPassing clouds.3 mph100%30.18 "HgN/A
4:30 am63 °FClear.6 mph94%30.18 "Hg10 mi
4:00 am63 °FClear.5 mph94%30.21 "Hg10 mi
3:30 am63 °FClear.2 mph94%30.21 "Hg10 mi
3:00 am64 °FClear.2 mph94%30.21 "Hg10 mi
2:30 am64 °FPassing clouds.7 mph94%30.21 "HgN/A
2:00 am64 °FPassing clouds.7 mph94%30.21 "HgN/A
1:30 am66 °FClear.8 mph88%30.24 "Hg10 mi
1:00 am64 °FClear.7 mph94%30.24 "Hg10 mi
12:30 am66 °FClear.6 mph88%30.21 "Hg10 mi
12:00 am66 °FClear.5 mph88%30.21 "Hg10 mi
11:30 pm
Tue, Jul 23
68 °FClear.5 mph83%30.21 "Hg10 mi
11:00 pm68 °FPassing clouds.5 mph83%30.21 "HgN/A
10:30 pm68 °FPassing clouds.2 mph78%30.21 "HgN/A
10:00 pm70 °FPassing clouds.2 mph78%30.21 "HgN/A
9:30 pm72 °FOvercast.3 mph73%30.21 "HgN/A
9:00 pm72 °FOvercast.5 mph73%30.21 "HgN/A
8:30 pm73 °FOvercast.6 mph69%30.21 "HgN/A
8:00 pm73 °FOvercast.7 mph69%30.21 "HgN/A
7:30 pm75 °FBroken clouds.8 mph65%30.21 "HgN/A
7:00 pm75 °FPartly sunny.8 mph65%30.21 "HgN/A
6:00 pm75 °FPassing clouds.8 mph65%30.21 "HgN/A
5:30 pm75 °FPartly sunny.9 mph65%30.21 "HgN/A
5:00 pm77 °FPartly sunny.6 mph61%30.21 "HgN/A
4:30 pm77 °FMostly cloudy.8 mph61%30.21 "HgN/A
4:00 pm77 °FPartly sunny.8 mph61%30.21 "HgN/A
3:30 pm75 °FBroken clouds.9 mph65%30.24 "HgN/A
2:30 pm75 °FMore clouds than sun.7 mph65%30.24 "HgN/A
2:00 pm75 °FBroken clouds.6 mph65%30.24 "HgN/A
Weather by CustomWeather, © 2024

See weather overview